CheckWX is a tool to help pilots better visualize weather data.  It is not intended as a substitute for an official pre-flight weather briefing.

21:00:04 UTC

KBDU METAR
Boulder Municipal Airport
Boulder, Colorado, USA
Current

30 mins ago

KBDU 202030Z AUTO 07006KT 10SM CLR 25/M05 A2980 RMK AO2
Observed
Apr-20 @ 20:30 UTC
Wind
  • 070° at 6 KTS
Visibility
10 SM
Flight Rules
VFR
Cloud Levels
  • Clear skies
Temperature
25°C / 77°F
Dewpoint
-5°C / 23°F
Humidity
13%
Altimeter
29.8" Hg
Pressure
1009.12 hPa
Previous

48 mins ago

KBDU 202012Z AUTO 11006KT 10SM CLR 26/M05 A2981 RMK AO2
Observed
Apr-20 @ 20:12 UTC
Wind
  • 110° at 6 KTS
Visibility
10 SM
Flight Rules
VFR
Cloud Levels
  • Clear skies
Temperature
26°C / 79°F
Dewpoint
-5°C / 23°F
Humidity
12%
Altimeter
29.81" Hg
Pressure
1009.52 hPa
Previous

1 hour ago

KBDU 201954Z AUTO 10008KT 10SM CLR 25/M05 A2982 RMK AO2
Observed
Apr-20 @ 19:54 UTC
Wind
  • 100° at 8 KTS
Visibility
10 SM
Flight Rules
VFR
Cloud Levels
  • Clear skies
Temperature
25°C / 77°F
Dewpoint
-5°C / 23°F
Humidity
13%
Altimeter
29.82" Hg
Pressure
1009.82 hPa